Time;durP1;ratioP1;P1;durP2;ratioP2;P2;SDS_P1;SDS_P2;PMS_P1;PMS_P2;Temp;Humidity;BMP_temperature;BMP_pressure;BME280_temperature;BME280_humidity;BME280_pressure;Samples;Min_cycle;Max_cycle;Signal;HPM_P1;HPM_P2
2023/08/20 00:01:24;;;;;;;7.37;2.00;;;;;;;;;;5091082;28;20726;-78
2023/08/20 00:03:52;;;;;;;6.45;1.63;;;;;;;;;;5090829;28;20198;-77
2023/08/20 00:06:20;;;;;;;5.35;1.92;;;;;;;;;;5091027;28;20275;-77
2023/08/20 00:08:47;;;;;;;7.53;1.90;;;;;;;;;;5090940;28;20632;-77
2023/08/20 00:11:14;;;;;;;7.73;1.77;;;;;;;;;;5091231;28;20639;-77
2023/08/20 00:13:43;;;;;;;5.80;1.77;;;;;;;;;;5091032;28;20292;-78
2023/08/20 00:16:10;;;;;;;8.80;1.90;;;;;;;;;;5091248;28;20294;-78
2023/08/20 00:18:38;;;;;;;8.77;2.00;;;;;;;;;;5090855;28;20282;-77
2023/08/20 00:21:06;;;;;;;5.25;1.33;;;;;;;;;;5091803;28;20282;-77
2023/08/20 00:23:33;;;;;;;6.37;1.70;;;;;;;;;;5091197;28;20202;-77
2023/08/20 00:26:02;;;;;;;5.28;1.50;;;;;;;;;;5090983;28;20655;-77
2023/08/20 00:28:29;;;;;;;4.23;1.53;;;;;;;;;;5091330;28;20198;-77
2023/08/20 00:30:57;;;;;;;6.33;1.50;;;;;;;;;;5091567;28;20250;-76
2023/08/20 00:33:25;;;;;;;5.90;1.70;;;;;;;;;;5090752;28;20237;-76
2023/08/20 00:35:52;;;;;;;5.77;1.70;;;;;;;;;;5091145;28;20202;-76
2023/08/20 00:38:19;;;;;;;6.10;2.30;;;;;;;;;;5090629;28;20536;-77
2023/08/20 00:40:46;;;;;;;6.37;1.87;;;;;;;;;;5091295;28;20224;-76
2023/08/20 00:43:13;;;;;;;6.47;1.80;;;;;;;;;;5091564;28;20281;-77
2023/08/20 00:45:42;;;;;;;9.60;2.07;;;;;;;;;;5091076;28;20273;-77
2023/08/20 00:48:11;;;;;;;6.27;1.80;;;;;;;;;;5090383;28;20203;-76
2023/08/20 00:50:39;;;;;;;5.70;1.87;;;;;;;;;;5090722;28;20248;-77
2023/08/20 00:53:07;;;;;;;4.47;1.77;;;;;;;;;;5090590;28;20861;-78
2023/08/20 00:55:34;;;;;;;7.13;1.97;;;;;;;;;;5090683;28;20200;-76
2023/08/20 00:58:01;;;;;;;7.00;1.87;;;;;;;;;;5091075;28;21140;-77
2023/08/20 01:00:28;;;;;;;6.20;1.73;;;;;;;;;;5090857;28;20230;-77
2023/08/20 01:02:56;;;;;;;4.80;1.70;;;;;;;;;;5090695;28;20209;-77
2023/08/20 01:05:25;;;;;;;4.90;2.00;;;;;;;;;;5090667;28;20285;-76
2023/08/20 01:08:06;;;;;;;11.27;1.93;;;;;;;;;;5090449;28;20549;-77
2023/08/20 01:10:37;;;;;;;8.27;1.77;;;;;;;;;;5090714;28;20316;-76
2023/08/20 01:13:05;;;;;;;6.43;1.83;;;;;;;;;;5090868;28;20558;-78
2023/08/20 01:15:32;;;;;;;7.87;1.77;;;;;;;;;;5091176;28;20194;-77
2023/08/20 01:18:00;;;;;;;6.90;1.83;;;;;;;;;;5090339;28;20260;-77
2023/08/20 01:20:30;;;;;;;6.47;1.90;;;;;;;;;;5090590;28;20230;-77
2023/08/20 01:23:16;;;;;;;7.17;1.83;;;;;;;;;;5090611;28;20206;-78
2023/08/20 01:25:52;;;;;;;5.50;2.00;;;;;;;;;;5091826;28;20743;-77
2023/08/20 01:28:23;;;;;;;7.80;1.97;;;;;;;;;;5094371;28;20217;-78
2023/08/20 01:30:51;;;;;;;5.73;1.80;;;;;;;;;;5093590;28;20282;-76
2023/08/20 01:33:18;;;;;;;8.43;1.90;;;;;;;;;;5094691;28;20268;-77
2023/08/20 01:35:46;;;;;;;5.80;1.60;;;;;;;;;;5094016;28;20289;-77
2023/08/20 01:38:13;;;;;;;4.80;1.70;;;;;;;;;;5093476;28;20754;-77
2023/08/20 01:40:40;;;;;;;5.93;1.83;;;;;;;;;;5093968;28;20631;-76
2023/08/20 01:43:07;;;;;;;5.63;1.63;;;;;;;;;;5094243;28;20222;-77
2023/08/20 01:45:36;;;;;;;5.77;1.60;;;;;;;;;;5093388;28;20205;-77
2023/08/20 01:48:04;;;;;;;4.33;1.50;;;;;;;;;;5093872;28;20251;-77
2023/08/20 01:50:31;;;;;;;6.50;1.80;;;;;;;;;;5093668;28;20729;-77
2023/08/20 01:52:58;;;;;;;4.37;1.70;;;;;;;;;;5093177;28;20329;-77
2023/08/20 01:55:25;;;;;;;5.50;1.80;;;;;;;;;;5093918;28;20637;-77
2023/08/20 01:57:52;;;;;;;5.23;1.70;;;;;;;;;;5093817;28;20285;-77
2023/08/20 02:00:19;;;;;;;5.57;1.40;;;;;;;;;;5093082;28;20742;-77
2023/08/20 02:02:48;;;;;;;4.87;1.60;;;;;;;;;;5093478;28;20728;-78
2023/08/20 02:05:15;;;;;;;4.17;1.60;;;;;;;;;;5093831;28;20282;-77
2023/08/20 02:07:42;;;;;;;4.57;1.50;;;;;;;;;;5093557;28;20234;-75
2023/08/20 02:10:10;;;;;;;4.07;1.40;;;;;;;;;;5090048;28;20290;-76
2023/08/20 02:12:37;;;;;;;3.53;1.40;;;;;;;;;;5082207;28;20198;-77
2023/08/20 02:15:04;;;;;;;4.80;1.50;;;;;;;;;;5092871;28;20294;-76
2023/08/20 02:17:32;;;;;;;4.03;1.63;;;;;;;;;;5093179;28;20199;-75
2023/08/20 02:20:00;;;;;;;5.47;1.47;;;;;;;;;;5093286;28;21023;-76
2023/08/20 02:22:29;;;;;;;5.43;1.67;;;;;;;;;;5093662;28;20194;-75
2023/08/20 02:24:56;;;;;;;6.07;1.70;;;;;;;;;;5093253;28;20194;-77
2023/08/20 02:27:23;;;;;;;6.03;1.47;;;;;;;;;;5093204;28;20222;-77
2023/08/20 02:29:51;;;;;;;7.43;2.30;;;;;;;;;;5092532;28;20327;-76
2023/08/20 02:32:18;;;;;;;6.60;2.20;;;;;;;;;;5092947;28;20260;-77
2023/08/20 02:34:46;;;;;;;6.57;1.80;;;;;;;;;;5092691;28;20606;-77
2023/08/20 02:37:14;;;;;;;5.13;1.60;;;;;;;;;;5092700;28;20661;-76
2023/08/20 02:39:41;;;;;;;4.63;1.60;;;;;;;;;;5092832;28;20244;-77
2023/08/20 02:42:08;;;;;;;5.07;1.90;;;;;;;;;;5092935;28;20229;-77
2023/08/20 02:44:36;;;;;;;5.53;1.70;;;;;;;;;;5092706;28;20201;-77
2023/08/20 02:47:03;;;;;;;6.23;1.90;;;;;;;;;;5092545;28;20286;-76
2023/08/20 02:49:30;;;;;;;5.80;2.00;;;;;;;;;;5090169;28;20290;-76
2023/08/20 02:51:57;;;;;;;6.73;1.90;;;;;;;;;;5093202;28;20265;-78
2023/08/20 02:54:26;;;;;;;8.10;2.20;;;;;;;;;;5094940;28;20673;-77
2023/08/20 02:56:54;;;;;;;6.43;2.03;;;;;;;;;;5096024;28;20284;-77
2023/08/20 02:59:21;;;;;;;4.23;1.77;;;;;;;;;;5075580;28;20194;-77
2023/08/20 03:01:48;;;;;;;4.10;1.70;;;;;;;;;;5090651;28;20201;-77
2023/08/20 03:04:15;;;;;;;7.50;1.67;;;;;;;;;;5092237;28;20722;-76
2023/08/20 03:06:43;;;;;;;7.43;1.83;;;;;;;;;;5095587;28;20647;-77
2023/08/20 03:09:11;;;;;;;4.20;1.60;;;;;;;;;;5093297;28;20206;-76
2023/08/20 03:11:40;;;;;;;5.73;1.80;;;;;;;;;;5092157;28;20226;-76
2023/08/20 03:14:07;;;;;;;4.40;2.00;;;;;;;;;;5091925;28;20218;-77
2023/08/20 03:16:34;;;;;;;4.03;1.60;;;;;;;;;;5091822;28;21009;-78
2023/08/20 03:19:02;;;;;;;5.10;1.43;;;;;;;;;;5091507;28;20666;-76
2023/08/20 03:21:29;;;;;;;4.50;1.73;;;;;;;;;;5090306;28;20206;-76
2023/08/20 03:23:56;;;;;;;5.40;1.87;;;;;;;;;;5092056;28;20286;-77
2023/08/20 03:26:24;;;;;;;6.63;1.63;;;;;;;;;;5091738;28;20285;-77
2023/08/20 03:28:52;;;;;;;4.47;1.43;;;;;;;;;;5091798;28;20226;-77
2023/08/20 03:31:19;;;;;;;3.80;1.30;;;;;;;;;;5071558;28;20313;-77
2023/08/20 03:33:47;;;;;;;9.00;2.00;;;;;;;;;;5071409;28;20318;-77
2023/08/20 03:36:14;;;;;;;5.13;1.63;;;;;;;;;;5071631;28;20191;-77
2023/08/20 03:38:41;;;;;;;5.80;1.63;;;;;;;;;;5071397;28;20219;-77
2023/08/20 03:41:08;;;;;;;5.20;1.53;;;;;;;;;;5071653;28;20289;-78
2023/08/20 03:43:35;;;;;;;5.57;1.50;;;;;;;;;;5088457;28;20226;-77
2023/08/20 03:46:04;;;;;;;5.10;1.77;;;;;;;;;;5091575;28;20237;-76
2023/08/20 03:48:31;;;;;;;3.47;1.50;;;;;;;;;;5090903;28;20229;-76
2023/08/20 03:50:58;;;;;;;6.07;1.67;;;;;;;;;;5091552;28;20226;-76
2023/08/20 03:53:26;;;;;;;4.70;1.60;;;;;;;;;;5091589;28;20320;-76
2023/08/20 03:55:53;;;;;;;3.80;1.33;;;;;;;;;;5091015;28;20658;-77
2023/08/20 03:58:20;;;;;;;3.37;1.30;;;;;;;;;;5091525;28;20245;-75
2023/08/20 04:00:47;;;;;;;4.03;1.47;;;;;;;;;;5091748;28;20248;-76
2023/08/20 04:03:19;;;;;;;5.07;1.53;;;;;;;;;;5091364;28;20202;-75
2023/08/20 04:05:46;;;;;;;3.87;1.67;;;;;;;;;;5091337;28;20199;-76
2023/08/20 04:08:13;;;;;;;6.80;1.80;;;;;;;;;;5091184;28;20222;-76
2023/08/20 04:10:44;;;;;;;3.97;1.30;;;;;;;;;;5091031;28;20430;-76
2023/08/20 04:13:13;;;;;;;3.43;1.57;;;;;;;;;;5091174;28;20198;-76
2023/08/20 04:15:41;;;;;;;5.03;1.60;;;;;;;;;;5091619;28;20198;-77
2023/08/20 04:18:08;;;;;;;3.40;1.40;;;;;;;;;;5091141;28;20573;-77
2023/08/20 04:20:36;;;;;;;4.97;1.37;;;;;;;;;;5091393;28;20198;-77
2023/08/20 04:23:04;;;;;;;3.93;1.80;;;;;;;;;;5091545;28;20236;-76
2023/08/20 04:25:31;;;;;;;3.30;1.80;;;;;;;;;;5090718;28;20294;-76
2023/08/20 04:27:58;;;;;;;3.57;1.73;;;;;;;;;;5091283;28;20285;-77
2023/08/20 04:30:25;;;;;;;3.97;1.80;;;;;;;;;;5091061;28;20197;-76
2023/08/20 04:32:52;;;;;;;4.20;1.80;;;;;;;;;;5091312;28;20316;-76
2023/08/20 04:35:19;;;;;;;3.47;1.63;;;;;;;;;;5091191;28;20659;-76
2023/08/20 04:37:48;;;;;;;1.67;1.30;;;;;;;;;;5090947;28;20666;-76
2023/08/20 04:40:15;;;;;;;3.10;1.40;;;;;;;;;;5090961;28;20635;-77
2023/08/20 04:42:42;;;;;;;2.97;1.40;;;;;;;;;;5091127;28;20217;-76
2023/08/20 04:45:11;;;;;;;3.13;1.50;;;;;;;;;;5091115;28;20224;-77
2023/08/20 04:47:38;;;;;;;2.67;1.50;;;;;;;;;;5091330;28;20203;-77
2023/08/20 04:50:07;;;;;;;3.00;1.40;;;;;;;;;;5090926;28;20221;-77
2023/08/20 04:52:34;;;;;;;2.43;1.90;;;;;;;;;;5090742;28;20226;-77
2023/08/20 04:55:03;;;;;;;3.07;1.70;;;;;;;;;;5091041;28;20282;-77
2023/08/20 04:57:31;;;;;;;4.67;1.60;;;;;;;;;;5091188;28;20190;-77
2023/08/20 04:59:58;;;;;;;4.17;1.70;;;;;;;;;;5092043;28;20281;-76
2023/08/20 05:02:25;;;;;;;2.33;1.97;;;;;;;;;;5094692;28;20199;-77
2023/08/20 05:04:53;;;;;;;2.60;2.40;;;;;;;;;;5094616;28;20694;-76
2023/08/20 05:07:20;;;;;;;2.77;2.30;;;;;;;;;;5094298;28;20723;-75
2023/08/20 05:09:47;;;;;;;2.30;2.10;;;;;;;;;;5094476;28;20190;-76
2023/08/20 05:12:16;;;;;;;3.33;2.03;;;;;;;;;;5094755;28;20639;-76
2023/08/20 05:14:43;;;;;;;2.60;2.37;;;;;;;;;;5094417;28;20290;-77
2023/08/20 05:17:10;;;;;;;2.40;2.20;;;;;;;;;;5094312;28;20286;-76
2023/08/20 05:19:37;;;;;;;3.50;2.43;;;;;;;;;;5094387;28;20202;-77
2023/08/20 05:22:04;;;;;;;3.20;2.30;;;;;;;;;;5094590;28;20198;-76
2023/08/20 05:24:31;;;;;;;3.00;2.20;;;;;;;;;;5094119;28;20229;-77
2023/08/20 05:27:06;;;;;;;4.07;2.17;;;;;;;;;;5093785;28;20285;-76
2023/08/20 05:29:34;;;;;;;11.37;3.00;;;;;;;;;;5094600;28;20219;-77
2023/08/20 05:32:01;;;;;;;2.80;2.23;;;;;;;;;;5094277;28;20325;-77
2023/08/20 05:34:29;;;;;;;2.40;2.20;;;;;;;;;;5094096;28;20195;-76
2023/08/20 05:36:56;;;;;;;3.13;2.40;;;;;;;;;;5094091;28;20285;-75
2023/08/20 05:39:23;;;;;;;2.70;2.03;;;;;;;;;;5093618;28;20293;-76
2023/08/20 05:41:50;;;;;;;2.60;2.30;;;;;;;;;;5094443;28;20233;-76
2023/08/20 05:44:17;;;;;;;2.40;2.20;;;;;;;;;;5093863;28;20197;-77
2023/08/20 05:46:46;;;;;;;3.00;2.30;;;;;;;;;;5093594;28;20194;-77
2023/08/20 05:49:15;;;;;;;2.80;2.20;;;;;;;;;;5094005;28;20222;-77
2023/08/20 05:51:42;;;;;;;4.60;2.80;;;;;;;;;;5093508;28;20279;-77
2023/08/20 05:54:09;;;;;;;2.83;2.33;;;;;;;;;;5093886;28;20250;-77
2023/08/20 05:56:37;;;;;;;3.90;1.90;;;;;;;;;;5093683;28;20285;-77
2023/08/20 05:59:04;;;;;;;9.67;2.57;;;;;;;;;;5093736;28;20237;-77
2023/08/20 06:01:31;;;;;;;2.23;2.00;;;;;;;;;;5093701;28;20206;-76
2023/08/20 06:04:01;;;;;;;3.40;1.93;;;;;;;;;;5093695;28;20293;-77
2023/08/20 06:06:28;;;;;;;2.17;1.97;;;;;;;;;;5093847;28;20199;-76
2023/08/20 06:08:55;;;;;;;2.67;1.80;;;;;;;;;;5093740;28;20290;-77
2023/08/20 06:11:23;;;;;;;2.70;1.90;;;;;;;;;;5093110;28;20233;-75
2023/08/20 06:13:50;;;;;;;3.60;2.00;;;;;;;;;;5093320;28;20297;-77
2023/08/20 06:16:17;;;;;;;3.28;1.73;;;;;;;;;;5093428;28;20289;-76
2023/08/20 06:18:44;;;;;;;2.92;1.95;;;;;;;;;;5092961;28;20194;-77
2023/08/20 06:21:13;;;;;;;2.60;1.85;;;;;;;;;;5093524;28;20249;-77
2023/08/20 06:23:40;;;;;;;2.78;1.92;;;;;;;;;;5093523;28;20221;-77
2023/08/20 06:26:08;;;;;;;2.25;1.55;;;;;;;;;;5093192;28;20204;-77
2023/08/20 06:28:35;;;;;;;2.42;1.67;;;;;;;;;;5093695;28;20392;-78
2023/08/20 06:31:02;;;;;;;2.30;1.40;;;;;;;;;;5093799;28;20281;-78
2023/08/20 06:33:29;;;;;;;3.15;1.50;;;;;;;;;;5093192;28;20261;-78
2023/08/20 06:35:56;;;;;;;4.25;1.73;;;;;;;;;;5092951;28;20202;-77
2023/08/20 06:38:25;;;;;;;4.35;1.50;;;;;;;;;;5092696;28;20235;-77
2023/08/20 06:40:53;;;;;;;2.50;1.65;;;;;;;;;;5093058;28;20298;-77
2023/08/20 06:43:20;;;;;;;5.05;1.58;;;;;;;;;;5093008;28;20198;-76
2023/08/20 06:45:47;;;;;;;6.63;1.70;;;;;;;;;;5093499;28;20219;-76
2023/08/20 06:48:14;;;;;;;3.35;1.65;;;;;;;;;;5092942;28;20218;-78
2023/08/20 06:50:43;;;;;;;5.72;1.77;;;;;;;;;;5092585;28;20279;-77
2023/08/20 06:53:10;;;;;;;3.45;1.60;;;;;;;;;;5092709;28;20324;-78
2023/08/20 06:55:38;;;;;;;4.32;1.50;;;;;;;;;;5092777;28;20641;-78
2023/08/20 06:58:06;;;;;;;4.80;1.70;;;;;;;;;;5092745;28;20670;-78
2023/08/20 07:00:33;;;;;;;4.93;1.80;;;;;;;;;;5092465;28;20293;-77
2023/08/20 07:03:00;;;;;;;3.53;1.48;;;;;;;;;;5092332;28;20614;-78
2023/08/20 07:05:27;;;;;;;4.90;1.45;;;;;;;;;;5092091;28;20277;-76
2023/08/20 07:07:54;;;;;;;4.18;1.50;;;;;;;;;;5092486;28;20601;-78
2023/08/20 07:10:22;;;;;;;5.35;1.75;;;;;;;;;;5092798;28;20629;-77
2023/08/20 07:12:50;;;;;;;5.28;1.52;;;;;;;;;;5092565;28;20313;-78
2023/08/20 07:15:17;;;;;;;5.10;1.58;;;;;;;;;;5092626;28;20273;-78
2023/08/20 07:17:44;;;;;;;4.95;1.48;;;;;;;;;;5091970;28;20294;-78
2023/08/20 07:20:12;;;;;;;8.27;1.90;;;;;;;;;;5091662;28;20228;-78
2023/08/20 07:22:39;;;;;;;7.13;1.88;;;;;;;;;;5091847;28;20194;-79
2023/08/20 07:25:06;;;;;;;5.90;1.50;;;;;;;;;;5091576;28;20198;-78
2023/08/20 07:27:33;;;;;;;4.72;1.60;;;;;;;;;;5092066;28;20194;-79
2023/08/20 07:30:02;;;;;;;7.55;1.90;;;;;;;;;;5091718;28;20659;-79
2023/08/20 07:32:29;;;;;;;5.22;1.90;;;;;;;;;;5091587;28;20230;-78
2023/08/20 07:34:56;;;;;;;4.43;1.50;;;;;;;;;;5091272;28;20750;-79
2023/08/20 07:37:24;;;;;;;3.42;1.60;;;;;;;;;;5091602;28;20285;-78
2023/08/20 07:39:51;;;;;;;5.43;1.67;;;;;;;;;;5091878;28;20702;-79
2023/08/20 07:42:18;;;;;;;5.20;1.50;;;;;;;;;;5091537;28;20670;-79
2023/08/20 07:44:45;;;;;;;6.22;1.80;;;;;;;;;;5091990;28;20685;-80
2023/08/20 07:47:14;;;;;;;7.35;1.95;;;;;;;;;;5091607;28;20194;-79
2023/08/20 07:49:41;;;;;;;4.55;1.60;;;;;;;;;;5091126;28;20229;-79
2023/08/20 07:52:08;;;;;;;4.05;1.42;;;;;;;;;;5091516;28;20245;-79
2023/08/20 07:54:36;;;;;;;4.07;1.40;;;;;;;;;;5091313;28;20249;-80
2023/08/20 07:57:03;;;;;;;5.80;1.73;;;;;;;;;;5091459;28;20217;-78
2023/08/20 07:59:30;;;;;;;5.15;1.30;;;;;;;;;;5091500;28;20289;-79
2023/08/20 08:01:57;;;;;;;4.22;1.50;;;;;;;;;;5091483;28;20281;-79
2023/08/20 08:04:25;;;;;;;5.72;1.40;;;;;;;;;;5091447;28;20682;-79
2023/08/20 08:06:53;;;;;;;3.67;1.50;;;;;;;;;;5091204;28;20663;-80
2023/08/20 08:09:21;;;;;;;5.53;1.25;;;;;;;;;;5091464;28;20274;-79
2023/08/20 08:11:48;;;;;;;4.53;1.60;;;;;;;;;;5085635;28;20205;-79
2023/08/20 08:14:16;;;;;;;5.78;1.30;;;;;;;;;;5088601;28;20663;-79
2023/08/20 08:16:43;;;;;;;5.88;1.58;;;;;;;;;;5090992;28;20221;-78
2023/08/20 08:19:10;;;;;;;5.95;1.60;;;;;;;;;;5091852;28;20226;-79
2023/08/20 08:21:39;;;;;;;5.57;1.33;;;;;;;;;;5091755;28;20285;-79
2023/08/20 08:24:06;;;;;;;4.60;1.60;;;;;;;;;;5091090;28;20238;-79
2023/08/20 08:26:35;;;;;;;4.13;1.38;;;;;;;;;;5091416;28;20286;-78
2023/08/20 08:29:02;;;;;;;7.07;1.60;;;;;;;;;;5091211;28;20251;-80
2023/08/20 08:31:29;;;;;;;6.32;1.50;;;;;;;;;;5090181;28;20233;-79
2023/08/20 08:33:57;;;;;;;7.97;1.50;;;;;;;;;;5082446;28;20718;-78
2023/08/20 08:36:25;;;;;;;5.15;1.30;;;;;;;;;;5093128;28;20198;-79
2023/08/20 08:38:54;;;;;;;6.97;1.48;;;;;;;;;;5093908;28;20195;-79
2023/08/20 08:41:23;;;;;;;5.02;1.40;;;;;;;;;;4740188;28;10000906;-79
2023/08/20 08:43:50;;;;;;;5.10;1.42;;;;;;;;;;5092565;28;20198;-80
2023/08/20 08:46:19;;;;;;;4.32;1.40;;;;;;;;;;5081124;28;20260;-80
2023/08/20 08:48:47;;;;;;;6.68;1.40;;;;;;;;;;5072297;28;20199;-80
2023/08/20 08:51:15;;;;;;;5.40;1.08;;;;;;;;;;5087206;28;20206;-80
2023/08/20 08:53:44;;;;;;;3.47;1.15;;;;;;;;;;5071457;28;20334;-80
2023/08/20 08:56:13;;;;;;;6.07;1.30;;;;;;;;;;5079581;28;20763;-79
2023/08/20 08:58:40;;;;;;;4.85;1.42;;;;;;;;;;5089626;28;20285;-80
2023/08/20 09:01:07;;;;;;;3.83;1.05;;;;;;;;;;5093523;28;20225;-78
2023/08/20 09:03:34;;;;;;;3.88;1.20;;;;;;;;;;5101296;28;20289;-80
2023/08/20 09:06:03;;;;;;;3.15;1.20;;;;;;;;;;5093569;28;20712;-80
2023/08/20 09:08:31;;;;;;;5.93;1.30;;;;;;;;;;5094072;28;20204;-81
2023/08/20 09:10:59;;;;;;;6.75;1.52;;;;;;;;;;5093340;28;20233;-82
2023/08/20 09:13:28;;;;;;;4.65;1.30;;;;;;;;;;5097952;28;20317;-81
2023/08/20 09:15:55;;;;;;;3.50;1.10;;;;;;;;;;5093704;28;20662;-81
2023/08/20 09:18:22;;;;;;;7.80;1.67;;;;;;;;;;5092104;28;20198;-81
2023/08/20 09:20:50;;;;;;;5.38;1.30;;;;;;;;;;5087238;28;20620;-81
2023/08/20 09:23:17;;;;;;;3.92;1.30;;;;;;;;;;5083564;28;20199;-81
2023/08/20 09:25:45;;;;;;;4.82;1.40;;;;;;;;;;5094390;28;20218;-81
2023/08/20 09:28:12;;;;;;;6.13;1.60;;;;;;;;;;5091275;28;20197;-81
2023/08/20 09:30:41;;;;;;;4.68;1.17;;;;;;;;;;5090777;28;20687;-79
2023/08/20 09:33:09;;;;;;;5.20;1.30;;;;;;;;;;5088659;28;20287;-80
2023/08/20 09:35:36;;;;;;;4.88;1.23;;;;;;;;;;5092350;28;20741;-81
2023/08/20 09:38:05;;;;;;;4.25;1.25;;;;;;;;;;5092560;28;20758;-79
2023/08/20 09:40:32;;;;;;;3.92;1.10;;;;;;;;;;5092323;28;20289;-80
2023/08/20 09:42:59;;;;;;;4.10;1.00;;;;;;;;;;5093327;28;20294;-79
2023/08/20 09:45:28;;;;;;;3.53;1.23;;;;;;;;;;5086506;28;20425;-80
2023/08/20 09:47:59;;;;;;;3.17;1.00;;;;;;;;;;5092036;28;20203;-80
2023/08/20 09:50:27;;;;;;;4.72;1.23;;;;;;;;;;5091425;28;20628;-79
2023/08/20 09:52:58;;;;;;;2.78;0.90;;;;;;;;;;5093040;28;20230;-80
2023/08/20 09:55:30;;;;;;;1.98;1.00;;;;;;;;;;5093090;28;20278;-80
2023/08/20 09:57:59;;;;;;;3.28;1.00;;;;;;;;;;5092656;28;20274;-79
2023/08/20 10:00:27;;;;;;;3.45;1.30;;;;;;;;;;5092169;28;20271;-79
2023/08/20 10:02:55;;;;;;;2.25;0.88;;;;;;;;;;5093031;28;20190;-79
2023/08/20 10:05:24;;;;;;;2.10;0.93;;;;;;;;;;5091985;28;20227;-80
2023/08/20 10:07:52;;;;;;;2.55;0.80;;;;;;;;;;5093326;28;20198;-80
2023/08/20 10:10:19;;;;;;;4.63;1.08;;;;;;;;;;5093175;28;20659;-79
2023/08/20 10:12:48;;;;;;;2.75;0.90;;;;;;;;;;5093003;28;20284;-79
2023/08/20 10:15:15;;;;;;;2.78;1.10;;;;;;;;;;5094487;28;20596;-78
2023/08/20 10:17:44;;;;;;;3.13;1.25;;;;;;;;;;5091659;28;20271;-80
2023/08/20 10:20:11;;;;;;;5.18;1.55;;;;;;;;;;5087991;28;20586;-78
2023/08/20 10:22:41;;;;;;;4.25;0.98;;;;;;;;;;5097337;28;20201;-78
2023/08/20 10:25:08;;;;;;;4.18;1.40;;;;;;;;;;5087589;28;20230;-78
2023/08/20 10:27:38;;;;;;;3.08;1.02;;;;;;;;;;5087180;28;20202;-78
2023/08/20 10:30:11;;;;;;;2.58;1.02;;;;;;;;;;5095495;28;20259;-76
2023/08/20 10:32:49;;;;;;;2.90;1.05;;;;;;;;;;5092594;28;20289;-77
2023/08/20 10:35:19;;;;;;;3.60;1.55;;;;;;;;;;5093042;28;20741;-77
2023/08/20 10:38:07;;;;;;;3.78;1.35;;;;;;;;;;5094287;28;20284;-77
2023/08/20 10:41:04;;;;;;;4.60;1.20;;;;;;;;;;5093045;28;20194;-78
2023/08/20 10:43:32;;;;;;;2.47;0.95;;;;;;;;;;5054045;28;20298;-77
2023/08/20 10:46:09;;;;;;;3.28;1.30;;;;;;;;;;5048359;28;20199;-77
2023/08/20 10:48:37;;;;;;;3.25;1.35;;;;;;;;;;5055601;28;20285;-77
2023/08/20 10:51:14;;;;;;;2.83;1.27;;;;;;;;;;5050260;28;20295;-78
2023/08/20 10:53:43;;;;;;;3.53;1.20;;;;;;;;;;5050230;28;20410;-78
2023/08/20 10:56:14;;;;;;;3.67;1.30;;;;;;;;;;5035261;28;20200;-79
2023/08/20 10:58:45;;;;;;;3.63;1.00;;;;;;;;;;5049311;28;20294;-79
2023/08/20 11:01:20;;;;;;;2.40;1.00;;;;;;;;;;5050087;28;20282;-79
2023/08/20 11:03:48;;;;;;;3.80;1.30;;;;;;;;;;5050164;28;20194;-79
2023/08/20 11:06:17;;;;;;;4.18;1.20;;;;;;;;;;5049593;28;21187;-79
2023/08/20 11:08:45;;;;;;;2.58;1.15;;;;;;;;;;5050108;28;20286;-79
2023/08/20 11:11:13;;;;;;;3.00;1.00;;;;;;;;;;5049710;28;20217;-79
2023/08/20 11:13:42;;;;;;;3.55;1.20;;;;;;;;;;5050162;28;20277;-79
2023/08/20 11:16:10;;;;;;;3.58;1.30;;;;;;;;;;5049776;28;20222;-79
2023/08/20 11:18:37;;;;;;;3.15;0.80;;;;;;;;;;5088715;28;20227;-79
2023/08/20 11:21:05;;;;;;;3.33;1.20;;;;;;;;;;5092677;28;20284;-79
2023/08/20 11:23:32;;;;;;;4.03;1.20;;;;;;;;;;5092416;28;20698;-80
2023/08/20 11:26:02;;;;;;;2.45;0.90;;;;;;;;;;5092756;28;20221;-79
2023/08/20 11:28:29;;;;;;;2.90;0.80;;;;;;;;;;5077812;28;20277;-79
2023/08/20 11:30:57;;;;;;;1.90;1.00;;;;;;;;;;5072494;28;20246;-79
2023/08/20 11:33:26;;;;;;;2.95;0.90;;;;;;;;;;5073235;28;20250;-78
2023/08/20 11:35:53;;;;;;;3.97;1.88;;;;;;;;;;5086444;28;20769;-80
2023/08/20 11:38:21;;;;;;;3.83;1.05;;;;;;;;;;5092073;28;20221;-80
2023/08/20 11:40:49;;;;;;;2.60;0.95;;;;;;;;;;5092195;28;20210;-80
2023/08/20 11:43:17;;;;;;;3.63;1.30;;;;;;;;;;5091961;28;20232;-79
2023/08/20 11:45:48;;;;;;;3.85;2.35;;;;;;;;;;5091962;28;20194;-79
2023/08/20 11:48:16;;;;;;;3.97;2.20;;;;;;;;;;5091919;28;20281;-80
2023/08/20 11:50:43;;;;;;;3.38;1.02;;;;;;;;;;5091839;28;20221;-80
2023/08/20 11:53:11;;;;;;;3.45;1.67;;;;;;;;;;5092838;28;20772;-79
2023/08/20 11:55:39;;;;;;;3.22;1.27;;;;;;;;;;5092080;28;20270;-79
2023/08/20 11:58:06;;;;;;;3.03;0.90;;;;;;;;;;5092830;28;20286;-79
2023/08/20 12:00:35;;;;;;;4.28;1.20;;;;;;;;;;5092416;28;20355;-79
2023/08/20 12:03:03;;;;;;;2.13;0.80;;;;;;;;;;5091774;28;20739;-79
2023/08/20 12:05:31;;;;;;;4.28;1.10;;;;;;;;;;5091693;28;20205;-79
2023/08/20 12:07:59;;;;;;;2.80;1.15;;;;;;;;;;5092795;28;20229;-79
2023/08/20 12:10:26;;;;;;;2.72;0.90;;;;;;;;;;5090613;28;20197;-80
2023/08/20 12:12:54;;;;;;;2.33;0.80;;;;;;;;;;5092037;28;20189;-81
2023/08/20 12:15:21;;;;;;;1.92;0.80;;;;;;;;;;5091915;28;20230;-80
2023/08/20 12:17:59;;;;;;;3.25;0.77;;;;;;;;;;5091531;28;20214;-80
2023/08/20 12:20:28;;;;;;;3.35;0.80;;;;;;;;;;5091530;28;20631;-80
2023/08/20 12:22:56;;;;;;;3.17;0.93;;;;;;;;;;5091743;28;20244;-80
2023/08/20 12:25:23;;;;;;;2.08;0.80;;;;;;;;;;5091182;28;20297;-80
2023/08/20 12:27:50;;;;;;;2.83;0.98;;;;;;;;;;5093349;28;20294;-80
2023/08/20 12:30:17;;;;;;;3.60;1.10;;;;;;;;;;5091562;28;20289;-80
2023/08/20 12:32:45;;;;;;;2.03;0.80;;;;;;;;;;5093991;28;20222;-79
2023/08/20 12:35:13;;;;;;;2.83;0.80;;;;;;;;;;5092630;28;20225;-80
2023/08/20 12:37:40;;;;;;;2.80;0.75;;;;;;;;;;5078244;28;20285;-80
2023/08/20 12:40:10;;;;;;;3.88;0.90;;;;;;;;;;5071467;28;20226;-79
2023/08/20 12:42:38;;;;;;;4.05;1.08;;;;;;;;;;5072356;28;20202;-80
2023/08/20 12:45:06;;;;;;;3.00;1.13;;;;;;;;;;5070596;28;20311;-80
2023/08/20 12:47:33;;;;;;;2.58;1.17;;;;;;;;;;5071282;28;20195;-80
2023/08/20 12:50:00;;;;;;;2.90;0.80;;;;;;;;;;5083239;28;20233;-80
2023/08/20 12:52:29;;;;;;;1.73;0.70;;;;;;;;;;5091715;28;20225;-80
2023/08/20 12:54:56;;;;;;;2.47;0.90;;;;;;;;;;5091184;28;20329;-79
2023/08/20 12:57:23;;;;;;;2.97;0.80;;;;;;;;;;5090817;28;20198;-79
2023/08/20 12:59:50;;;;;;;2.20;0.90;;;;;;;;;;5091377;28;20291;-79
2023/08/20 13:02:17;;;;;;;2.67;0.90;;;;;;;;;;5091031;28;20205;-79
2023/08/20 13:04:45;;;;;;;3.45;1.15;;;;;;;;;;5091055;28;20198;-80
2023/08/20 13:07:14;;;;;;;1.90;0.82;;;;;;;;;;5091302;28;20237;-79
2023/08/20 13:09:43;;;;;;;3.60;1.20;;;;;;;;;;5090947;28;20204;-80
2023/08/20 13:12:12;;;;;;;2.95;0.90;;;;;;;;;;5090861;28;20204;-80
2023/08/20 13:14:40;;;;;;;2.72;1.00;;;;;;;;;;5090768;28;20230;-79
2023/08/20 13:17:08;;;;;;;2.00;0.90;;;;;;;;;;5090669;28;20315;-80
2023/08/20 13:19:35;;;;;;;2.78;1.00;;;;;;;;;;5089475;28;20234;-81
2023/08/20 13:22:02;;;;;;;2.03;1.00;;;;;;;;;;5081556;28;20223;-80
2023/08/20 13:24:29;;;;;;;1.52;0.70;;;;;;;;;;5092614;28;20233;-80
2023/08/20 13:26:58;;;;;;;3.28;0.70;;;;;;;;;;5095003;28;20221;-79
2023/08/20 13:29:26;;;;;;;0.95;0.60;;;;;;;;;;5093808;28;20662;-81
2023/08/20 13:31:53;;;;;;;4.68;1.10;;;;;;;;;;5093816;28;20644;-80
2023/08/20 13:34:20;;;;;;;2.83;0.80;;;;;;;;;;5084432;28;20316;-80
2023/08/20 13:36:47;;;;;;;1.73;0.80;;;;;;;;;;5095913;28;20281;-81
2023/08/20 13:39:15;;;;;;;2.35;0.80;;;;;;;;;;5093698;28;20281;-80
2023/08/20 13:41:42;;;;;;;2.60;0.80;;;;;;;;;;5093758;28;20236;-79
2023/08/20 13:44:11;;;;;;;2.58;0.82;;;;;;;;;;5092489;28;20290;-79
2023/08/20 13:46:38;;;;;;;3.10;0.85;;;;;;;;;;5092820;28;20233;-80
2023/08/20 13:49:05;;;;;;;1.48;0.90;;;;;;;;;;5093656;28;20218;-79
2023/08/20 13:51:32;;;;;;;2.55;0.70;;;;;;;;;;5093349;28;20233;-80
2023/08/20 13:54:00;;;;;;;2.38;0.80;;;;;;;;;;5092518;28;20222;-79
2023/08/20 13:56:27;;;;;;;2.83;0.90;;;;;;;;;;5086838;28;20203;-80
2023/08/20 13:58:54;;;;;;;2.53;0.93;;;;;;;;;;5073811;28;20203;-80
2023/08/20 14:01:23;;;;;;;3.67;0.90;;;;;;;;;;5087455;28;20229;-80
2023/08/20 14:03:51;;;;;;;3.45;0.88;;;;;;;;;;5092410;28;20655;-80
2023/08/20 14:06:18;;;;;;;3.25;0.70;;;;;;;;;;5093767;28;20281;-83
2023/08/20 14:08:45;;;;;;;0.98;0.50;;;;;;;;;;5093734;28;20301;-82
2023/08/20 14:11:12;;;;;;;2.00;0.75;;;;;;;;;;5093476;28;20733;-82
2023/08/20 14:13:39;;;;;;;2.95;0.70;;;;;;;;;;5087621;28;20285;-81
2023/08/20 14:16:07;;;;;;;2.33;0.73;;;;;;;;;;5090304;28;20321;-81
2023/08/20 14:18:39;;;;;;;3.70;1.08;;;;;;;;;;5093510;28;20234;-82
2023/08/20 14:21:06;;;;;;;2.60;0.80;;;;;;;;;;5092753;28;20281;-80
2023/08/20 14:23:34;;;;;;;3.78;0.80;;;;;;;;;;5092613;28;20225;-82
2023/08/20 14:26:02;;;;;;;2.15;0.70;;;;;;;;;;5093888;28;20551;-82
2023/08/20 14:28:29;;;;;;;2.40;0.80;;;;;;;;;;5084568;28;20198;-82
2023/08/20 14:30:56;;;;;;;1.25;0.60;;;;;;;;;;5095011;28;20285;-81
2023/08/20 14:33:23;;;;;;;2.70;1.05;;;;;;;;;;5091840;28;20201;-82
2023/08/20 14:35:52;;;;;;;1.95;0.70;;;;;;;;;;5092221;28;20267;-81
2023/08/20 14:38:19;;;;;;;1.90;0.60;;;;;;;;;;5091834;28;20221;-80
2023/08/20 14:40:47;;;;;;;4.72;0.80;;;;;;;;;;5091956;28;20725;-81
2023/08/20 14:43:14;;;;;;;1.35;0.65;;;;;;;;;;5090830;28;20221;-80
2023/08/20 14:45:41;;;;;;;2.85;0.63;;;;;;;;;;5093898;28;20273;-79
2023/08/20 14:48:08;;;;;;;1.17;0.60;;;;;;;;;;5090395;28;20218;-80